createdAt,value
2019-06-15T00:01:33.089Z,99550.72
2019-06-15T00:03:59.353Z,99541.55
2019-06-15T00:06:25.540Z,99536.81
2019-06-15T00:08:51.844Z,99521.73
2019-06-15T00:11:17.994Z,99521.67
2019-06-15T00:13:44.164Z,99520.24
2019-06-15T00:16:10.360Z,99522.44
2019-06-15T00:18:36.522Z,99523.58
2019-06-15T00:21:02.796Z,99517.64
2019-06-15T00:23:29.013Z,99516.10
2019-06-15T00:25:55.257Z,99503.19
2019-06-15T00:28:21.413Z,99497.12
2019-06-15T00:30:47.820Z,99497.28
2019-06-15T00:33:14.008Z,99503.20
2019-06-15T00:35:40.519Z,99497.11
2019-06-15T00:38:06.746Z,99496.34
2019-06-15T00:40:33.000Z,99493.38
2019-06-15T00:42:59.156Z,99499.58
2019-06-15T00:45:25.371Z,99496.06
2019-06-15T00:47:51.541Z,99496.38
2019-06-15T00:50:17.762Z,99494.92
2019-06-15T00:52:43.969Z,99498.94
2019-06-15T00:55:10.132Z,99491.47
2019-06-15T00:57:36.302Z,99499.84
2019-06-15T01:00:06.429Z,99497.48
2019-06-15T01:02:32.673Z,99491.88
2019-06-15T01:04:58.853Z,99482.67
2019-06-15T01:07:25.173Z,99481.91
2019-06-15T01:09:51.331Z,99478.78
2019-06-15T01:12:17.578Z,99482.89
2019-06-15T01:14:43.791Z,99484.31
2019-06-15T01:17:09.943Z,99485.68
2019-06-15T01:19:36.127Z,99487.08
2019-06-15T01:22:02.326Z,99487.16
2019-06-15T01:24:28.488Z,99476.08
2019-06-15T01:26:54.656Z,99480.11
2019-06-15T01:29:20.885Z,99477.75
2019-06-15T01:31:47.165Z,99476.58
2019-06-15T01:34:13.325Z,99475.44
2019-06-15T01:36:39.536Z,99476.55
2019-06-15T01:39:05.803Z,99479.62
2019-06-15T01:41:31.960Z,99484.71
2019-06-15T01:43:58.192Z,99487.53
2019-06-15T01:46:24.363Z,99488.91
2019-06-15T01:48:50.518Z,99494.31
2019-06-15T01:51:16.829Z,99498.10
2019-06-15T01:53:43.023Z,99502.23
2019-06-15T01:56:09.183Z,99501.98
2019-06-15T01:58:35.399Z,99502.94
2019-06-15T02:01:01.579Z,99509.16
2019-06-15T02:03:27.745Z,99506.51
2019-06-15T02:05:53.973Z,99502.64
2019-06-15T02:08:20.173Z,99512.99
2019-06-15T02:10:46.330Z,99505.59
2019-06-15T02:13:18.233Z,99519.13
2019-06-15T02:15:44.377Z,99516.47
2019-06-15T02:18:10.559Z,99516.23
2019-06-15T02:20:36.768Z,99514.83
2019-06-15T02:23:03.023Z,99510.51
2019-06-15T02:25:35.822Z,99513.52
2019-06-15T02:27:58.216Z,99515.67
2019-06-15T02:30:26.284Z,99522.12
2019-06-15T02:32:53.282Z,99522.12
2019-06-15T02:35:19.577Z,99519.25
2019-06-15T02:37:45.732Z,99512.27
2019-06-15T02:40:12.207Z,99515.11
2019-06-15T02:42:38.411Z,99508.58
2019-06-15T02:45:05.789Z,99509.20
2019-06-15T02:47:31.945Z,99496.53
2019-06-15T02:49:58.143Z,99503.86
2019-06-15T02:52:24.331Z,99500.14
2019-06-15T02:54:50.486Z,99505.25
2019-06-15T02:57:16.690Z,99499.76
2019-06-15T02:59:42.863Z,99495.00
2019-06-15T03:02:09.015Z,99496.85
2019-06-15T03:04:35.224Z,99491.20
2019-06-15T03:07:01.509Z,99486.14
2019-06-15T03:09:27.682Z,99498.17
2019-06-15T03:11:53.863Z,99502.47
2019-06-15T03:14:21.050Z,99502.55
2019-06-15T03:16:47.203Z,99498.55
2019-06-15T03:19:13.418Z,99497.61
2019-06-15T03:21:39.619Z,99508.16
2019-06-15T03:24:05.784Z,99511.00
2019-06-15T03:26:32.068Z,99506.36
2019-06-15T03:28:58.259Z,99506.47
2019-06-15T03:31:24.515Z,99497.98
2019-06-15T03:33:50.739Z,99502.12
2019-06-15T03:36:17.364Z,99500.02
2019-06-15T03:38:43.524Z,99496.52
2019-06-15T03:41:09.736Z,99501.48
2019-06-15T03:43:35.911Z,99505.65
2019-06-15T03:46:02.077Z,99510.34
2019-06-15T03:48:28.269Z,99511.37
2019-06-15T03:50:54.471Z,99517.70
2019-06-15T03:53:20.657Z,99512.67
2019-06-15T03:55:46.894Z,99501.07
2019-06-15T03:58:13.089Z,99507.44
2019-06-15T04:00:45.301Z,99507.38
2019-06-15T04:03:11.503Z,99504.69
2019-06-15T04:05:37.681Z,99502.93
2019-06-15T04:08:03.854Z,99500.20
2019-06-15T04:10:30.058Z,99496.80
2019-06-15T04:12:56.247Z,99495.42
2019-06-15T04:15:22.407Z,99493.44
2019-06-15T04:17:48.626Z,99492.82
2019-06-15T04:20:14.819Z,99492.82
2019-06-15T04:22:41.044Z,99487.73
2019-06-15T04:25:07.247Z,99488.67
2019-06-15T04:27:33.427Z,99505.95
2019-06-15T04:29:59.595Z,99510.45
2019-06-15T04:32:25.810Z,99514.55
2019-06-15T04:34:51.990Z,99515.83
2019-06-15T04:37:18.167Z,99515.59
2019-06-15T04:39:44.356Z,99513.05
2019-06-15T04:42:10.536Z,99514.14
2019-06-15T04:44:36.685Z,99497.69
2019-06-15T04:47:02.900Z,99490.64
2019-06-15T04:49:29.083Z,99497.05
2019-06-15T04:51:55.257Z,99500.55
2019-06-15T04:54:21.602Z,99500.08
2019-06-15T04:56:50.882Z,99506.78
2019-06-15T04:59:15.858Z,99517.58
2019-06-15T05:01:42.062Z,99520.66
2019-06-15T05:04:08.247Z,99508.78
2019-06-15T05:06:36.335Z,99511.53
2019-06-15T05:09:04.562Z,99515.30
2019-06-15T05:11:30.741Z,99516.56
2019-06-15T05:13:57.009Z,99516.09
2019-06-15T05:16:23.204Z,99521.86
2019-06-15T05:18:49.394Z,99514.88
2019-06-15T05:21:15.575Z,99514.80
2019-06-15T05:23:41.762Z,99530.66
2019-06-15T05:26:07.927Z,99528.16
2019-06-15T05:28:34.150Z,99522.67
2019-06-15T05:31:00.314Z,99531.33
2019-06-15T05:33:26.512Z,99544.09
2019-06-15T05:35:52.708Z,99544.46
2019-06-15T05:38:18.903Z,99553.09
2019-06-15T05:40:45.073Z,99553.13
2019-06-15T05:43:11.367Z,99550.48
2019-06-15T05:45:37.693Z,99547.69
2019-06-15T05:48:03.909Z,99544.71
2019-06-15T05:50:30.096Z,99542.38
2019-06-15T05:52:56.290Z,99554.97
2019-06-15T05:55:22.504Z,99551.89
2019-06-15T05:57:48.783Z,99538.95
2019-06-15T06:00:16.886Z,99543.84
2019-06-15T06:02:43.068Z,99540.94
2019-06-15T06:05:10.653Z,99542.09
2019-06-15T06:07:36.970Z,99537.55
2019-06-15T06:10:10.801Z,99530.34
2019-06-15T06:12:38.021Z,99535.49
2019-06-15T06:15:05.714Z,99539.20
2019-06-15T06:17:32.013Z,99546.17
2019-06-15T06:19:58.292Z,99529.88
2019-06-15T06:22:24.597Z,99531.14
2019-06-15T06:24:50.859Z,99525.61
2019-06-15T06:27:17.146Z,99527.64
2019-06-15T06:29:43.450Z,99529.30
2019-06-15T06:32:09.765Z,99543.22
2019-06-15T06:34:36.042Z,99547.81
2019-06-15T06:37:02.794Z,99543.75
2019-06-15T06:39:29.060Z,99534.00
2019-06-15T06:41:55.361Z,99540.72
2019-06-15T06:44:21.689Z,99542.23
2019-06-15T06:46:47.962Z,99546.78
2019-06-15T06:49:14.246Z,99548.02
2019-06-15T06:51:40.559Z,99547.62
2019-06-15T06:54:06.842Z,99550.58
2019-06-15T06:56:33.186Z,99551.21
2019-06-15T06:58:59.511Z,99543.08
2019-06-15T07:01:25.787Z,99530.46
2019-06-15T07:03:52.166Z,99538.37
2019-06-15T07:06:18.487Z,99548.22
2019-06-15T07:08:47.931Z,99536.84
2019-06-15T07:11:12.941Z,99537.73
2019-06-15T07:13:39.245Z,99528.19
2019-06-15T07:16:05.521Z,99537.81
2019-06-15T07:18:31.806Z,99535.61
2019-06-15T07:20:58.121Z,99543.44
2019-06-15T07:23:24.387Z,99534.41
2019-06-15T07:25:50.675Z,99540.95
2019-06-15T07:28:17.278Z,99545.95
2019-06-15T07:30:43.559Z,99545.27
2019-06-15T07:33:09.845Z,99540.81
2019-06-15T07:35:36.145Z,99538.59
2019-06-15T07:38:02.418Z,99538.64
2019-06-15T07:40:28.706Z,99532.62
2019-06-15T07:42:55.132Z,99540.91
2019-06-15T07:45:21.396Z,99536.41
2019-06-15T07:47:48.707Z,99540.51
2019-06-15T07:50:15.043Z,99532.12
2019-06-15T07:52:41.306Z,99530.56
2019-06-15T07:55:07.999Z,99530.94
2019-06-15T07:57:34.456Z,99541.88
2019-06-15T08:00:03.376Z,99538.48
2019-06-15T08:02:29.654Z,99541.20
2019-06-15T08:04:56.004Z,99536.16
2019-06-15T08:07:22.268Z,99541.40
2019-06-15T08:09:48.549Z,99539.66
2019-06-15T08:12:14.875Z,99540.00
2019-06-15T08:14:41.142Z,99544.26
2019-06-15T08:17:07.414Z,99537.27
2019-06-15T08:19:33.745Z,99539.25
2019-06-15T08:22:02.012Z,99537.00
2019-06-15T08:24:28.294Z,99535.27
2019-06-15T08:26:54.630Z,99536.84
2019-06-15T08:32:09.789Z,99541.07
2019-06-15T08:34:36.124Z,99541.58
2019-06-15T08:37:02.415Z,99543.78
2019-06-15T08:39:28.729Z,99541.09
2019-06-15T08:41:56.949Z,99544.71
2019-06-15T08:44:23.626Z,99537.48
2019-06-15T08:46:53.007Z,99537.10
2019-06-15T08:49:19.284Z,99539.06
2019-06-15T08:51:45.464Z,99535.78
2019-06-15T08:54:11.682Z,99527.94
2019-06-15T08:56:37.877Z,99538.84
2019-06-15T08:59:04.029Z,99529.91
2019-06-15T09:01:30.249Z,99539.66
2019-06-15T09:04:01.576Z,99524.34
2019-06-15T09:06:27.734Z,99530.17
2019-06-15T09:08:54.964Z,99530.52
2019-06-15T09:11:21.147Z,99528.97
2019-06-15T09:13:47.291Z,99525.41
2019-06-15T09:16:13.489Z,99525.94
2019-06-15T09:18:39.672Z,99509.50
2019-06-15T09:21:05.852Z,99506.89
2019-06-15T09:23:32.038Z,99523.64
2019-06-15T09:25:58.223Z,99521.63
2019-06-15T09:28:24.389Z,99516.92
2019-06-15T09:30:50.600Z,99517.16
2019-06-15T09:33:16.875Z,99513.37
2019-06-15T09:35:43.145Z,99516.70
2019-06-15T09:38:09.606Z,99496.41
2019-06-15T09:40:35.854Z,99505.34
2019-06-15T09:43:02.032Z,99503.05
2019-06-15T09:45:28.317Z,99492.16
2019-06-15T09:47:54.491Z,99500.17
2019-06-15T09:50:20.682Z,99498.97
2019-06-15T09:52:47.171Z,99497.00
2019-06-15T09:55:13.707Z,99499.39
2019-06-15T09:57:40.018Z,99489.64
2019-06-15T10:00:07.629Z,99490.08
2019-06-15T10:02:33.809Z,99477.91
2019-06-15T10:05:00.083Z,99481.78
2019-06-15T10:07:26.286Z,99468.70
2019-06-15T10:09:52.566Z,99474.67
2019-06-15T10:12:18.779Z,99467.69
2019-06-15T10:14:44.957Z,99472.91
2019-06-15T10:17:11.356Z,99467.09
2019-06-15T10:19:37.505Z,99468.04
2019-06-15T10:22:03.709Z,99458.01
2019-06-15T10:24:29.849Z,99463.97
2019-06-15T10:26:56.024Z,99459.03
2019-06-15T10:29:22.223Z,99456.02
2019-06-15T10:31:48.482Z,99460.48
2019-06-15T10:34:14.646Z,99445.89
2019-06-15T10:36:40.843Z,99441.16
2019-06-15T10:39:07.203Z,99437.81
2019-06-15T10:41:33.359Z,99429.11
2019-06-15T10:43:59.556Z,99424.80
2019-06-15T10:46:25.709Z,99435.88
2019-06-15T10:48:51.871Z,99432.05
2019-06-15T10:51:18.070Z,99428.53
2019-06-15T10:53:44.353Z,99414.27
2019-06-15T10:56:10.516Z,99412.88
2019-06-15T10:58:36.815Z,99407.92
2019-06-15T11:01:03.313Z,99413.11
2019-06-15T11:03:29.908Z,99418.88
2019-06-15T11:05:56.089Z,99412.81
2019-06-15T11:08:22.285Z,99404.28
2019-06-15T11:10:52.016Z,99411.48
2019-06-15T11:13:18.208Z,99412.55
2019-06-15T11:15:44.877Z,99400.31
2019-06-15T11:18:11.052Z,99398.47
2019-06-15T11:20:37.309Z,99398.78
2019-06-15T11:23:03.549Z,99395.28
2019-06-15T11:25:30.108Z,99396.06
2019-06-15T11:27:56.294Z,99382.28
2019-06-15T11:30:23.378Z,99384.13
2019-06-15T11:32:49.551Z,99386.27
2019-06-15T11:35:15.736Z,99393.35
2019-06-15T11:37:41.895Z,99385.88
2019-06-15T11:40:08.560Z,99376.36
2019-06-15T11:42:34.768Z,99371.05
2019-06-15T11:45:00.934Z,99360.76
2019-06-15T11:47:27.096Z,99361.15
2019-06-15T11:49:53.288Z,99362.02
2019-06-15T11:52:19.451Z,99360.98
2019-06-15T11:54:45.625Z,99360.60
2019-06-15T11:57:11.818Z,99360.24
2019-06-15T11:59:37.979Z,99348.55
2019-06-15T12:02:04.190Z,99349.55
2019-06-15T12:04:30.389Z,99350.20
2019-06-15T12:06:56.557Z,99353.42
2019-06-15T12:09:22.714Z,99347.06
2019-06-15T12:11:48.899Z,99341.31
2019-06-15T12:14:15.056Z,99346.45
2019-06-15T12:16:41.232Z,99336.52
2019-06-15T12:19:07.530Z,99326.31
2019-06-15T12:21:33.789Z,99335.45
2019-06-15T12:23:59.947Z,99337.30
2019-06-15T12:26:26.140Z,99330.70
2019-06-15T12:28:52.301Z,99325.28
2019-06-15T12:31:18.462Z,99333.20
2019-06-15T12:33:44.659Z,99330.80
2019-06-15T12:36:19.168Z,99314.81
2019-06-15T12:38:39.328Z,99315.74
2019-06-15T12:41:05.529Z,99317.59
2019-06-15T12:43:31.737Z,99315.18
2019-06-15T12:45:58.091Z,99325.11
2019-06-15T12:48:24.283Z,99317.09
2019-06-15T12:50:50.447Z,99316.48
2019-06-15T12:53:16.605Z,99313.85
2019-06-15T12:55:42.904Z,99305.67
2019-06-15T12:58:09.071Z,99306.05
2019-06-15T13:00:36.740Z,99307.46
2019-06-15T13:03:02.993Z,99299.27
2019-06-15T13:05:29.138Z,99294.55
2019-06-15T13:07:55.297Z,99282.52
2019-06-15T13:10:21.929Z,99292.10
2019-06-15T13:12:48.105Z,99285.71
2019-06-15T13:15:14.780Z,99288.19
2019-06-15T13:17:40.983Z,99282.63
2019-06-15T13:20:07.529Z,99279.16
2019-06-15T13:22:33.746Z,99280.02
2019-06-15T13:24:59.985Z,99276.48
2019-06-15T13:27:26.159Z,99280.92
2019-06-15T13:29:52.412Z,99282.50
2019-06-15T13:32:18.614Z,99279.09
2019-06-15T13:34:44.796Z,99289.48
2019-06-15T13:37:10.953Z,99286.33
2019-06-15T13:39:37.150Z,99288.69
2019-06-15T13:42:03.307Z,99285.02
2019-06-15T13:44:29.483Z,99286.98
2019-06-15T13:46:55.724Z,99286.00
2019-06-15T13:49:21.962Z,99284.11
2019-06-15T13:51:48.128Z,99278.00
2019-06-15T13:54:14.446Z,99277.75
2019-06-15T13:56:40.726Z,99278.05
2019-06-15T13:59:06.883Z,99278.41
2019-06-15T14:01:34.334Z,99272.26
2019-06-15T14:04:01.150Z,99262.41
2019-06-15T14:06:27.309Z,99264.47
2019-06-15T14:08:53.495Z,99269.34
2019-06-15T14:11:19.653Z,99258.67
2019-06-15T14:13:45.809Z,99267.12
2019-06-15T14:16:12.013Z,99259.56
2019-06-15T14:18:38.269Z,99251.88
2019-06-15T14:21:04.434Z,99248.86
2019-06-15T14:23:30.615Z,99245.91
2019-06-15T14:25:56.811Z,99246.69
2019-06-15T14:28:22.963Z,99247.14
2019-06-15T14:30:49.199Z,99243.83
2019-06-15T14:33:15.689Z,99231.37
2019-06-15T14:35:43.939Z,99230.84
2019-06-15T14:38:10.068Z,99229.91
2019-06-15T14:40:37.529Z,99222.45
2019-06-15T14:43:03.718Z,99223.75
2019-06-15T14:45:30.240Z,99223.20
2019-06-15T14:47:56.411Z,99223.89
2019-06-15T14:50:22.575Z,99231.76
2019-06-15T14:52:48.776Z,99231.33
2019-06-15T14:55:15.256Z,99225.11
2019-06-15T14:57:41.506Z,99219.35
2019-06-15T15:00:09.254Z,99223.66
2019-06-15T15:02:37.163Z,99224.02
2019-06-15T15:05:06.910Z,99229.58
2019-06-15T15:07:33.594Z,99222.66
2019-06-15T15:09:59.849Z,99220.03
2019-06-15T15:12:26.805Z,99211.64
2019-06-15T15:14:53.213Z,99217.69
2019-06-15T15:17:19.569Z,99220.53
2019-06-15T15:19:46.649Z,99224.73
2019-06-15T15:22:13.050Z,99226.33
2019-06-15T15:24:39.224Z,99226.05
2019-06-15T15:27:05.488Z,99223.14
2019-06-15T15:29:31.793Z,99224.19
2019-06-15T15:31:58.071Z,99218.13
2019-06-15T15:34:26.112Z,99213.00
2019-06-15T15:36:52.541Z,99210.94
2019-06-15T15:39:19.038Z,99219.12
2019-06-15T15:41:47.039Z,99221.95
2019-06-15T15:44:13.305Z,99228.45
2019-06-15T15:46:39.459Z,99220.16
2019-06-15T15:49:07.012Z,99219.78
2019-06-15T15:51:33.302Z,99218.23
2019-06-15T15:53:59.574Z,99212.83
2019-06-15T15:56:27.230Z,99221.78
2019-06-15T15:58:56.099Z,99217.69
2019-06-15T16:01:21.873Z,99214.47
2019-06-15T16:03:48.146Z,99225.91
2019-06-15T16:06:14.386Z,99229.87
2019-06-15T16:08:40.551Z,99234.32
2019-06-15T16:11:06.709Z,99239.64
2019-06-15T16:13:32.905Z,99240.66
2019-06-15T16:15:59.056Z,99251.58
2019-06-15T16:18:25.226Z,99260.49
2019-06-15T16:20:51.422Z,99251.66
2019-06-15T16:23:17.590Z,99247.72
2019-06-15T16:25:46.062Z,99251.59
2019-06-15T16:28:11.847Z,99248.47
2019-06-15T16:31:00.443Z,99250.77
2019-06-15T16:33:07.663Z,99241.51
2019-06-15T16:35:36.170Z,99231.98
2019-06-15T16:38:02.549Z,99221.72
2019-06-15T16:40:32.523Z,99228.55
2019-06-15T16:42:58.868Z,99232.53
2019-06-15T16:45:26.659Z,99234.23
2019-06-15T16:47:52.967Z,99236.92
2019-06-15T16:50:19.149Z,99231.52
2019-06-15T16:52:46.902Z,99217.18
2019-06-15T16:55:13.271Z,99225.88
2019-06-15T16:57:39.461Z,99231.37
2019-06-15T17:00:32.883Z,99242.02
2019-06-15T17:02:59.218Z,99257.61
2019-06-15T17:05:27.452Z,99266.58
2019-06-15T17:07:53.574Z,99281.83
2019-06-15T17:10:29.381Z,99277.92
2019-06-15T17:12:56.158Z,99266.10
2019-06-15T17:15:22.410Z,99245.34
2019-06-15T17:17:48.633Z,99234.30
2019-06-15T17:20:18.412Z,99239.91
2019-06-15T17:22:47.119Z,99269.43
2019-06-15T17:25:12.824Z,99332.02
2019-06-15T17:27:39.017Z,99373.50
2019-06-15T17:30:07.045Z,99372.50
2019-06-15T17:32:33.711Z,99385.58
2019-06-15T17:34:59.979Z,99345.86
2019-06-15T17:37:26.731Z,99395.67
2019-06-15T17:39:55.871Z,99428.28
2019-06-15T17:42:21.713Z,99450.66
2019-06-15T17:44:47.875Z,99474.31
2019-06-15T17:47:16.776Z,99488.18
2019-06-15T17:49:42.179Z,99490.91
2019-06-15T17:52:08.326Z,99510.30
2019-06-15T17:54:37.212Z,99518.08
2019-06-15T17:57:02.639Z,99539.09
2019-06-15T17:59:29.391Z,99536.78
2019-06-15T18:01:55.716Z,99561.57
2019-06-15T18:04:21.890Z,99562.55
2019-06-15T18:06:48.043Z,99570.20
2019-06-15T18:09:16.816Z,99565.33
2019-06-15T18:11:42.328Z,99551.77
2019-06-15T18:14:08.482Z,99528.46
2019-06-15T18:16:36.928Z,99515.45
2019-06-15T18:19:02.775Z,99513.39
2019-06-15T18:21:28.937Z,99499.02
2019-06-15T18:23:57.339Z,99506.44
2019-06-15T18:26:23.311Z,99500.81
2019-06-15T18:28:49.481Z,99497.77
2019-06-15T18:31:16.317Z,99498.67
2019-06-15T18:33:42.841Z,99499.28
2019-06-15T18:36:09.021Z,99503.94
2019-06-15T18:38:37.160Z,99507.14
2019-06-15T18:41:03.576Z,99511.91
2019-06-15T18:43:29.757Z,99530.13
2019-06-15T18:45:56.781Z,99528.95
2019-06-15T18:48:23.221Z,99539.58
2019-06-15T18:50:49.401Z,99546.17
2019-06-15T18:53:15.580Z,99544.78
2019-06-15T18:55:41.757Z,99551.66
2019-06-15T18:58:07.930Z,99553.20
2019-06-15T19:00:36.826Z,99549.14
2019-06-15T19:03:02.200Z,99555.52
2019-06-15T19:05:28.369Z,99548.56
2019-06-15T19:07:56.604Z,99547.20
2019-06-15T19:10:36.536Z,99544.97
2019-06-15T19:13:03.825Z,99546.08
2019-06-15T19:15:30.100Z,99534.75
2019-06-15T19:17:56.262Z,99538.23
2019-06-15T19:20:26.486Z,99534.39
2019-06-15T19:22:52.429Z,99531.13
2019-06-15T19:25:18.594Z,99523.49
2019-06-15T19:27:44.813Z,99513.96
2019-06-15T19:30:10.970Z,99500.44
2019-06-15T19:32:37.151Z,99488.24
2019-06-15T19:35:29.158Z,99482.78
2019-06-15T19:37:56.693Z,99471.09
2019-06-15T19:40:23.257Z,99463.10
2019-06-15T19:42:49.483Z,99454.28
2019-06-15T19:45:17.737Z,99445.26
2019-06-15T19:47:43.991Z,99438.42
2019-06-15T19:50:12.554Z,99429.05
2019-06-15T19:52:38.773Z,99425.45
2019-06-15T19:55:06.712Z,99409.20
2019-06-15T19:57:33.165Z,99395.07
2019-06-15T19:59:59.307Z,99393.52
2019-06-15T20:02:26.998Z,99390.79
2019-06-15T20:05:00.259Z,99390.45
2019-06-15T20:07:21.561Z,99399.33
2019-06-15T20:09:47.720Z,99403.57
2019-06-15T20:12:20.879Z,99409.20
2019-06-15T20:14:42.049Z,99421.89
2019-06-15T20:17:08.213Z,99414.73
2019-06-15T20:19:37.527Z,99411.14
2019-06-15T20:22:02.877Z,99409.15
2019-06-15T20:24:29.050Z,99404.85
2019-06-15T20:26:56.146Z,99404.53
2019-06-15T20:29:23.302Z,99414.28
2019-06-15T20:31:49.479Z,99416.16
2019-06-15T20:34:16.582Z,99410.56
2019-06-15T20:36:42.831Z,99414.59
2019-06-15T20:39:09.007Z,99413.04
2019-06-15T20:41:36.457Z,99411.65
2019-06-15T20:44:03.171Z,99405.11
2019-06-15T20:46:29.325Z,99398.16
2019-06-15T20:48:56.529Z,99395.80
2019-06-15T20:51:22.893Z,99394.92
2019-06-15T20:53:49.067Z,99404.34
2019-06-15T20:56:17.051Z,99404.38
2019-06-15T20:58:43.332Z,99406.56
2019-06-15T21:01:09.484Z,99416.78
2019-06-15T21:03:36.746Z,99409.11
2019-06-15T21:06:06.569Z,99394.53
2019-06-15T21:08:31.362Z,99395.54
2019-06-15T21:10:57.570Z,99397.73
2019-06-15T21:13:26.223Z,99394.57
2019-06-15T21:15:51.921Z,99386.27
2019-06-15T21:18:18.141Z,99387.50
2019-06-15T21:20:46.816Z,99376.37
2019-06-15T21:23:12.379Z,99369.47
2019-06-15T21:25:38.564Z,99353.54
2019-06-15T21:28:06.702Z,99340.99
2019-06-15T21:30:32.923Z,99330.16
2019-06-15T21:32:59.241Z,99322.42
2019-06-15T21:35:26.829Z,99321.17
2019-06-15T21:37:56.955Z,99331.73
2019-06-15T21:40:22.811Z,99343.54
2019-06-15T21:42:49.431Z,99352.91
2019-06-15T21:45:15.811Z,99355.45
2019-06-15T21:47:42.024Z,99351.83
2019-06-15T21:50:11.212Z,99348.42
2019-06-15T21:52:37.501Z,99349.31
2019-06-15T21:55:06.948Z,99350.20
2019-06-15T21:57:36.555Z,99342.64
2019-06-15T22:00:17.175Z,99341.78
2019-06-15T22:02:42.260Z,99346.05
2019-06-15T22:05:09.038Z,99344.63
2019-06-15T22:07:36.797Z,99335.67
2019-06-15T22:10:28.535Z,99345.66
2019-06-15T22:12:57.103Z,99350.38
2019-06-15T22:15:22.909Z,99341.02
2019-06-15T22:17:53.067Z,99333.95
2019-06-15T22:20:19.267Z,99338.59
2019-06-15T22:22:47.090Z,99353.24
2019-06-15T22:25:15.828Z,99348.42
2019-06-15T22:27:41.414Z,99335.88
2019-06-15T22:30:09.764Z,99339.20
2019-06-15T22:32:36.497Z,99349.53
2019-06-15T22:35:07.130Z,99339.11
2019-06-15T22:37:35.807Z,99347.11
2019-06-15T22:40:01.982Z,99349.22
2019-06-15T22:42:28.743Z,99347.69
2019-06-15T22:44:56.799Z,99355.41
2019-06-15T22:47:22.983Z,99351.80
2019-06-15T22:49:49.310Z,99352.08
2019-06-15T22:52:17.099Z,99357.36
2019-06-15T22:54:43.542Z,99346.04
2019-06-15T22:57:09.762Z,99338.34
2019-06-15T22:59:37.552Z,99333.53
2019-06-15T23:02:03.729Z,99334.80
2019-06-15T23:04:29.947Z,99329.85
2019-06-15T23:06:56.622Z,99326.09
2019-06-15T23:09:23.088Z,99320.48
2019-06-15T23:11:49.279Z,99320.77
2019-06-15T23:14:17.208Z,99309.67
2019-06-15T23:16:43.521Z,99315.27
2019-06-15T23:19:09.735Z,99310.20
2019-06-15T23:21:37.352Z,99310.52
2019-06-15T23:24:03.656Z,99312.17
2019-06-15T23:26:29.880Z,99315.87
2019-06-15T23:28:56.572Z,99321.17
2019-06-15T23:31:23.027Z,99311.52
2019-06-15T23:33:49.227Z,99310.45
2019-06-15T23:36:17.287Z,99309.16
2019-06-15T23:38:43.458Z,99311.80
2019-06-15T23:41:09.798Z,99309.67
2019-06-15T23:43:36.272Z,99308.86
2019-06-15T23:46:02.747Z,99307.75
2019-06-15T23:48:28.960Z,99311.16
2019-06-15T23:50:56.964Z,99305.84
2019-06-15T23:53:23.198Z,99305.88
2019-06-15T23:55:49.425Z,99310.72
2019-06-15T23:58:17.583Z,99305.75
